Time;durP1;ratioP1;P1;durP2;ratioP2;P2;SDS_P1;SDS_P2;PMS_P1;PMS_P2;Temp;Humidity;BMP_temperature;BMP_pressure;BME280_temperature;BME280_humidity;BME280_pressure;Samples;Min_cycle;Max_cycle;Signal;HPM_P1;HPM_P2
2021/12/29 00:00:57;;;;;;;12.53;6.73;;;;;;;7.62;100.00;99868.56;2089262;28;20024;-63
2021/12/29 00:01:57;;;;;;;17.13;8.02;;;;;;;7.63;100.00;99877.19;2089317;28;20131;-64
2021/12/29 00:03:00;;;;;;;15.57;7.67;;;;;;;7.62;100.00;99872.94;2098300;28;20496;-64
2021/12/29 00:04:00;;;;;;;11.88;7.38;;;;;;;7.62;100.00;99878.94;2098033;28;20020;-64
2021/12/29 00:05:00;;;;;;;13.23;7.30;;;;;;;7.62;100.00;99889.31;2089342;28;20480;-64
2021/12/29 00:06:00;;;;;;;13.00;7.37;;;;;;;7.61;100.00;99879.84;2089351;28;20100;-64
2021/12/29 00:07:01;;;;;;;11.47;7.27;;;;;;;7.61;100.00;99882.47;2089312;28;20484;-65
2021/12/29 00:08:02;;;;;;;12.87;7.10;;;;;;;7.61;100.00;99877.25;2089442;28;20040;-65
2021/12/29 00:09:03;;;;;;;15.70;7.65;;;;;;;7.60;100.00;99886.78;2098287;28;20029;-65
2021/12/29 00:10:05;;;;;;;15.50;7.67;;;;;;;7.60;100.00;99883.38;2098304;28;20050;-65
2021/12/29 00:11:06;;;;;;;15.18;7.80;;;;;;;7.61;100.00;99892.84;2089229;28;20025;-64
2021/12/29 00:12:10;;;;;;;13.43;7.72;;;;;;;7.59;100.00;99890.31;2089292;28;20431;-64
2021/12/29 00:13:10;;;;;;;11.00;6.68;;;;;;;7.58;100.00;99886.03;2098180;28;20043;-65
2021/12/29 00:14:11;;;;;;;10.47;6.27;;;;;;;7.59;100.00;99892.06;2097628;28;20478;-64
2021/12/29 00:15:14;;;;;;;14.13;6.90;;;;;;;7.61;100.00;99905.81;2097627;28;20028;-64
2021/12/29 00:16:14;;;;;;;12.77;7.55;;;;;;;7.60;100.00;99906.75;2098207;28;20025;-65
2021/12/29 00:17:14;;;;;;;10.37;5.67;;;;;;;7.61;100.00;99908.41;2089313;28;20463;-64
2021/12/29 00:18:15;;;;;;;11.17;6.97;;;;;;;7.60;100.00;99922.31;2089396;28;20024;-63
2021/12/29 00:19:15;;;;;;;11.53;6.23;;;;;;;7.62;100.00;99915.28;2098085;28;20029;-64
2021/12/29 00:20:19;;;;;;;13.05;7.00;;;;;;;7.60;100.00;99927.53;2098217;28;20504;-64
2021/12/29 00:21:19;;;;;;;10.07;6.40;;;;;;;7.58;100.00;99925.00;2098081;28;20028;-64
2021/12/29 00:22:20;;;;;;;10.80;6.27;;;;;;;7.60;100.00;99932.72;2098139;28;20394;-64
2021/12/29 00:23:20;;;;;;;9.27;5.67;;;;;;;7.59;100.00;99933.59;2098187;28;20028;-65
2021/12/29 00:24:21;;;;;;;10.97;5.93;;;;;;;7.59;100.00;99931.00;2098234;28;20024;-63
2021/12/29 00:25:21;;;;;;;9.98;6.15;;;;;;;7.60;100.00;99943.09;2098238;28;20382;-65
2021/12/29 00:26:21;;;;;;;7.53;5.07;;;;;;;7.61;100.00;99944.78;2098177;28;20040;-66
2021/12/29 00:27:21;;;;;;;11.00;5.70;;;;;;;7.60;100.00;99945.69;2097916;28;20028;-65
2021/12/29 00:28:22;;;;;;;9.23;5.03;;;;;;;7.59;100.00;99946.59;2098023;28;20024;-64
2021/12/29 00:29:22;;;;;;;7.83;5.00;;;;;;;7.60;100.00;99940.50;2089253;28;20033;-65
2021/12/29 00:30:23;;;;;;;10.17;5.20;;;;;;;7.62;100.00;99950.81;2089308;28;20084;-65
2021/12/29 00:31:32;;;;;;;9.23;5.80;;;;;;;7.60;100.00;99945.69;2098089;28;20458;-65
2021/12/29 00:32:33;;;;;;;15.05;6.20;;;;;;;7.58;100.00;99950.97;2098011;28;20456;-64
2021/12/29 00:33:33;;;;;;;8.37;4.87;;;;;;;7.60;100.00;99932.72;2098208;28;20028;-63
2021/12/29 00:34:33;;;;;;;10.13;6.10;;;;;;;7.60;100.00;99949.13;2089356;28;20025;-64
2021/12/29 00:35:35;;;;;;;10.57;6.00;;;;;;;7.60;100.00;99943.09;2089269;28;20047;-64
2021/12/29 00:36:35;;;;;;;;;;;;;;;7.62;100.00;99951.66;2098094;28;20029;-64
2021/12/29 00:37:35;;;;;;;10.07;5.47;;;;;;;7.60;100.00;99954.31;2098299;28;19912;-64
2021/12/29 00:38:36;;;;;;;9.33;5.63;;;;;;;7.59;100.00;99956.97;2097571;28;20035;-65
2021/12/29 00:39:36;;;;;;;9.25;5.10;;;;;;;7.58;100.00;99950.97;2097594;28;20075;-64
2021/12/29 00:40:39;;;;;;;8.33;5.00;;;;;;;7.59;100.00;99952.63;2098074;28;20039;-63
2021/12/29 00:41:39;;;;;;;12.20;7.65;;;;;;;7.60;100.00;99963.88;2097894;28;20111;-66
2021/12/29 00:42:40;;;;;;;8.70;5.97;;;;;;;7.58;100.00;99960.47;2098238;28;20017;-65
2021/12/29 00:43:40;;;;;;;9.48;5.97;;;;;;;7.59;100.00;99962.16;2098201;28;20024;-64
2021/12/29 00:44:40;;;;;;;11.63;6.53;;;;;;;7.59;100.00;99976.00;2098262;28;20016;-66
2021/12/29 00:45:41;;;;;;;9.03;5.73;;;;;;;7.60;100.00;99963.88;2089105;28;20044;-65
2021/12/29 00:46:41;;;;;;;10.30;6.20;;;;;;;7.61;100.00;99975.94;2089279;28;20362;-65
2021/12/29 00:47:42;;;;;;;8.60;6.10;;;;;;;7.61;100.00;99981.13;2089192;28;20025;-65
2021/12/29 00:48:44;;;;;;;8.15;6.13;;;;;;;7.60;100.00;99979.44;2089323;28;20465;-65
2021/12/29 00:49:46;;;;;;;12.77;6.63;;;;;;;7.58;100.00;99976.91;2098113;28;20067;-65
2021/12/29 00:50:47;;;;;;;10.50;7.22;;;;;;;7.59;100.00;99977.75;2098181;28;20069;-65
2021/12/29 00:51:48;;;;;;;10.35;7.55;;;;;;;7.57;100.00;99983.00;2098168;28;20028;-66
2021/12/29 00:52:49;;;;;;;9.50;6.50;;;;;;;7.57;100.00;99975.22;2097975;28;20065;-64
2021/12/29 00:53:49;;;;;;;13.13;7.10;;;;;;;7.57;100.00;99987.38;2098158;28;20089;-66
2021/12/29 00:54:49;;;;;;;13.77;7.80;;;;;;;7.56;100.00;99988.28;2098155;28;20064;-65
2021/12/29 00:55:50;;;;;;;11.63;7.40;;;;;;;7.55;100.00;99987.44;2098225;28;20024;-65
2021/12/29 00:56:50;;;;;;;10.73;6.43;;;;;;;7.55;100.00;99986.56;2089231;28;20021;-65
2021/12/29 00:57:51;;;;;;;11.02;7.10;;;;;;;7.56;100.00;99988.28;2089192;28;20117;-65
2021/12/29 00:58:52;;;;;;;12.95;6.20;;;;;;;7.55;100.00;99991.78;2098112;28;20028;-64
2021/12/29 00:59:52;;;;;;;12.60;7.10;;;;;;;7.55;100.00;99987.44;2098060;28;20063;-64
2021/12/29 01:00:53;;;;;;;13.10;8.13;;;;;;;7.55;100.00;99996.97;2089100;28;20021;-65
2021/12/29 01:01:53;;;;;;;15.97;8.60;;;;;;;7.54;100.00;99995.28;2089000;28;20017;-65
2021/12/29 01:02:53;;;;;;;14.93;7.87;;;;;;;7.55;100.00;99991.78;2098047;28;20777;-65
2021/12/29 01:03:54;;;;;;;15.43;6.97;;;;;;;7.54;100.00;99996.13;2098048;28;20108;-63
2021/12/29 01:04:54;;;;;;;14.07;7.47;;;;;;;7.55;100.00;100008.22;2098097;28;20020;-64
2021/12/29 01:05:55;;;;;;;13.63;6.73;;;;;;;7.55;100.00;100004.75;2098594;28;20129;-65
2021/12/29 01:06:55;;;;;;;13.63;8.13;;;;;;;7.55;100.00;100007.34;2099702;28;20381;-65
2021/12/29 01:07:56;;;;;;;13.52;8.40;;;;;;;7.54;100.00;100010.88;2099737;28;20036;-64
2021/12/29 01:08:56;;;;;;;13.43;6.72;;;;;;;7.56;100.00;100019.44;2099588;28;20116;-63
2021/12/29 01:09:56;;;;;;;12.83;7.67;;;;;;;7.55;100.00;100007.34;2099655;28;20445;-64
2021/12/29 01:10:57;;;;;;;17.03;8.97;;;;;;;7.54;100.00;100000.47;2090712;28;20464;-62
2021/12/29 01:11:59;;;;;;;15.93;8.93;;;;;;;7.54;100.00;100010.88;2090783;28;20123;-64
2021/12/29 01:13:02;;;;;;;9.75;6.82;;;;;;;7.54;100.00;100019.50;2099619;28;20097;-63
2021/12/29 01:14:04;;;;;;;17.95;10.00;;;;;;;7.53;100.00;100019.56;2099516;28;20086;-64
2021/12/29 01:15:05;;;;;;;13.40;7.93;;;;;;;7.54;100.00;100026.44;2099546;28;20028;-64
2021/12/29 01:17:06;;;;;;;13.63;8.10;;;;;;;7.53;100.00;100025.59;2099645;28;20039;-65
2021/12/29 01:18:07;;;;;;;12.75;7.28;;;;;;;7.55;100.00;100038.50;2099611;28;20055;-62
2021/12/29 01:19:11;;;;;;;14.33;8.70;;;;;;;7.54;100.00;100042.03;2099642;28;20531;-65
2021/12/29 01:20:12;;;;;;;11.32;7.95;;;;;;;7.54;100.00;100034.22;2099482;28;20028;-65
2021/12/29 01:21:12;;;;;;;13.27;8.25;;;;;;;7.55;100.00;100043.69;2099403;28;20425;-64
2021/12/29 01:22:12;;;;;;;14.50;8.03;;;;;;;7.55;100.00;100043.69;2099557;28;20028;-62
2021/12/29 01:23:13;;;;;;;16.57;9.43;;;;;;;7.55;100.00;100038.50;2099541;28;20033;-62
2021/12/29 01:24:14;;;;;;;17.47;8.93;;;;;;;7.55;100.00;100041.97;2099474;28;20039;-65
2021/12/29 01:25:14;;;;;;;;;;;;;;;7.55;100.00;100036.78;2099892;28;20431;-64
2021/12/29 01:26:14;;;;;;;11.52;7.55;;;;;;;7.55;100.00;100043.69;2090439;28;19932;-63
2021/12/29 01:27:16;;;;;;;15.07;6.90;;;;;;;7.56;100.00;100055.81;2090513;28;20025;-65
2021/12/29 01:28:17;;;;;;;14.30;7.55;;;;;;;7.55;100.00;100056.69;2099390;28;20039;-64
2021/12/29 01:29:17;;;;;;;14.20;8.30;;;;;;;7.54;100.00;100049.81;2099438;28;20035;-63
2021/12/29 01:30:19;;;;;;;14.60;8.60;;;;;;;7.52;100.00;100064.63;2099486;28;20025;-65
2021/12/29 01:31:19;;;;;;;14.88;9.13;;;;;;;7.53;100.00;100061.13;2099297;28;20032;-64
2021/12/29 01:32:19;;;;;;;14.93;8.17;;;;;;;7.52;100.00;100062.03;2099501;28;20078;-65
2021/12/29 01:33:20;;;;;;;13.73;8.23;;;;;;;7.54;100.00;100057.59;2099512;28;20032;-65
2021/12/29 01:34:21;;;;;;;13.73;8.10;;;;;;;7.53;100.00;100066.31;2099467;28;20020;-64
2021/12/29 01:35:22;;;;;;;13.50;7.82;;;;;;;7.53;100.00;100063.72;2099334;28;20435;-64
2021/12/29 01:36:22;;;;;;;14.50;8.33;;;;;;;7.52;100.00;100065.47;2099397;28;20078;-65
2021/12/29 01:37:22;;;;;;;15.13;7.70;;;;;;;7.53;100.00;100081.88;2099407;28;20468;-64
2021/12/29 01:38:22;;;;;;;16.10;9.13;;;;;;;7.55;100.00;100082.66;2099425;28;20078;-64
2021/12/29 01:39:23;;;;;;;12.50;7.40;;;;;;;7.56;100.00;100076.56;2099277;28;20088;-64
2021/12/29 01:40:24;;;;;;;14.52;9.18;;;;;;;7.56;100.00;100087.78;2099398;28;20034;-64
2021/12/29 01:41:24;;;;;;;10.33;7.53;;;;;;;7.55;100.00;100093.03;2099181;28;20025;-65
2021/12/29 01:42:24;;;;;;;10.97;7.73;;;;;;;7.54;100.00;100099.16;2099460;28;20101;-65
2021/12/29 01:43:25;;;;;;;14.20;8.40;;;;;;;7.53;100.00;100082.72;2099367;28;20039;-64
2021/12/29 01:44:27;;;;;;;11.07;6.85;;;;;;;7.55;100.00;100098.22;2099327;28;20048;-65
2021/12/29 01:45:27;;;;;;;14.52;8.55;;;;;;;7.53;100.00;100105.25;2099381;28;20025;-64
2021/12/29 01:46:28;;;;;;;12.80;9.17;;;;;;;7.53;100.00;100107.84;2099371;28;20025;-65
2021/12/29 01:47:31;;;;;;;16.67;9.07;;;;;;;7.51;100.00;100110.50;2099437;28;20051;-64
2021/12/29 01:48:31;;;;;;;13.15;8.02;;;;;;;7.54;100.00;100096.56;2099365;28;20017;-63
2021/12/29 01:49:32;;;;;;;13.33;8.00;;;;;;;7.53;100.00;100093.09;2099388;28;20119;-63
2021/12/29 01:50:33;;;;;;;14.50;7.90;;;;;;;7.54;100.00;100105.19;2099393;28;20024;-64
2021/12/29 01:51:35;;;;;;;15.75;8.93;;;;;;;7.53;100.00;100102.66;2099272;28;20486;-64
2021/12/29 01:52:39;;;;;;;16.95;8.48;;;;;;;7.53;100.00;100108.69;2099389;28;20028;-63
2021/12/29 01:53:47;;;;;;;11.65;7.95;;;;;;;7.53;100.00;100102.66;2099200;28;20028;-63
2021/12/29 01:54:48;;;;;;;18.48;8.73;;;;;;;7.52;100.00;100107.00;2099278;28;20027;-64
2021/12/29 01:55:49;;;;;;;14.23;8.10;;;;;;;7.55;100.00;100108.63;2099227;28;20056;-63
2021/12/29 01:56:51;;;;;;;16.15;9.02;;;;;;;7.55;100.00;100119.00;2099374;28;20100;-65
2021/12/29 01:57:52;;;;;;;11.85;8.05;;;;;;;7.53;100.00;100115.66;2098601;28;20024;-65
2021/12/29 01:58:52;;;;;;;16.52;7.50;;;;;;;7.52;100.00;100114.78;2098749;28;20031;-65
2021/12/29 01:59:53;;;;;;;12.67;8.20;;;;;;;7.52;100.00;100126.94;2099279;28;20405;-65
2021/12/29 02:00:55;;;;;;;16.73;8.93;;;;;;;7.51;100.00;100114.84;2099245;28;20049;-66
2021/12/29 02:01:55;;;;;;;13.02;8.00;;;;;;;7.51;100.00;100122.63;2099177;28;20024;-65
2021/12/29 02:02:55;;;;;;;18.48;8.52;;;;;;;7.50;100.00;100119.22;2090271;28;20080;-65
2021/12/29 02:03:58;;;;;;;16.80;9.00;;;;;;;7.50;100.00;100129.59;2090298;28;20033;-65
2021/12/29 02:04:59;;;;;;;12.05;7.65;;;;;;;7.49;100.00;100132.25;2090635;28;20043;-65
2021/12/29 02:05:59;;;;;;;13.50;8.23;;;;;;;7.50;100.00;100128.75;2099101;28;20032;-65
2021/12/29 02:07:00;;;;;;;13.47;8.27;;;;;;;7.50;100.00;100133.94;2099057;28;20032;-65
2021/12/29 02:08:00;;;;;;;16.83;8.93;;;;;;;7.49;100.00;100133.09;2099162;28;20036;-65
2021/12/29 02:09:01;;;;;;;12.05;7.53;;;;;;;7.50;100.00;100133.94;2099165;28;20024;-65
2021/12/29 02:10:03;;;;;;;12.75;7.13;;;;;;;7.51;100.00;100130.44;2099088;28;20040;-64
2021/12/29 02:11:06;;;;;;;15.25;8.85;;;;;;;7.50;100.00;100133.94;2090159;28;20580;-64
2021/12/29 02:12:07;;;;;;;14.55;9.38;;;;;;;7.50;100.00;100139.13;2090598;28;20131;-66
2021/12/29 02:13:11;;;;;;;;;;;;;;;7.51;100.00;100135.63;2099551;28;20021;-64
2021/12/29 02:14:12;;;;;;;12.98;8.13;;;;;;;7.53;100.00;100139.00;2099133;28;19908;-64
2021/12/29 02:15:12;;;;;;;15.40;8.57;;;;;;;7.52;100.00;100132.13;2090123;28;20040;-64
2021/12/29 02:16:12;;;;;;;13.18;9.80;;;;;;;7.51;100.00;100128.69;2090172;28;20071;-64
2021/12/29 02:17:13;;;;;;;16.33;8.70;;;;;;;7.50;100.00;100145.19;2089602;28;20029;-64
2021/12/29 02:18:16;;;;;;;15.93;9.63;;;;;;;7.50;100.00;100144.31;2090143;28;20021;-64
2021/12/29 02:19:16;;;;;;;22.02;10.75;;;;;;;7.51;100.00;100146.00;2099101;28;20028;-65
2021/12/29 02:20:20;;;;;;;13.30;6.93;;;;;;;7.49;100.00;100145.25;2090262;28;20036;-65
2021/12/29 02:21:25;;;;;;;18.20;8.65;;;;;;;7.52;100.00;100152.91;2090518;28;20029;-64
2021/12/29 02:23:34;;;;;;;19.97;10.33;;;;;;;7.54;100.00;100125.97;2090261;28;20417;-62
2021/12/29 02:24:41;;;;;;;18.08;9.70;;;;;;;7.52;100.00;100152.91;2099121;28;20089;-64
2021/12/29 02:25:49;;;;;;;19.20;10.43;;;;;;;7.52;100.00;100147.72;2099043;28;20095;-64
2021/12/29 02:26:50;;;;;;;16.48;10.05;;;;;;;7.48;100.00;100146.97;2090035;28;20024;-63
2021/12/29 02:27:54;;;;;;;16.17;10.48;;;;;;;7.50;100.00;100149.50;2089975;28;20049;-64
2021/12/29 02:28:56;;;;;;;18.15;11.35;;;;;;;7.49;100.00;100147.84;2098434;28;20497;-64
2021/12/29 02:29:56;;;;;;;15.88;10.02;;;;;;;7.50;100.00;100146.91;2098076;28;20093;-65
2021/12/29 02:30:59;;;;;;;15.43;9.63;;;;;;;7.50;100.00;100154.72;2099139;28;20020;-64
2021/12/29 02:32:00;;;;;;;17.20;10.02;;;;;;;7.47;100.00;100153.91;2098905;28;20024;-64
2021/12/29 02:33:02;;;;;;;19.30;10.75;;;;;;;7.47;100.00;100151.31;2098271;28;20039;-64
2021/12/29 02:34:05;;;;;;;16.55;10.48;;;;;;;7.49;100.00;100161.63;2098286;28;20494;-64
2021/12/29 02:35:06;;;;;;;19.83;9.38;;;;;;;7.50;100.00;100146.91;2098973;28;20069;-65
2021/12/29 02:36:06;;;;;;;17.65;10.43;;;;;;;7.49;100.00;100153.03;2098906;28;20032;-64
2021/12/29 02:37:07;;;;;;;13.73;9.15;;;;;;;7.50;100.00;100144.31;2098830;28;20041;-65
2021/12/29 02:38:20;;;;;;;15.75;9.88;;;;;;;7.50;100.00;100144.31;2098921;28;20060;-64
2021/12/29 02:39:22;;;;;;;18.90;10.05;;;;;;;7.47;100.00;100145.28;2098870;28;20483;-65
2021/12/29 02:40:22;;;;;;;18.73;10.68;;;;;;;7.46;100.00;100154.00;2098834;28;20024;-65
2021/12/29 02:41:25;;;;;;;16.50;10.17;;;;;;;7.45;100.00;100158.34;2098812;28;20120;-65
2021/12/29 02:42:29;;;;;;;15.00;9.18;;;;;;;7.44;100.00;100156.66;2098738;28;20318;-65
2021/12/29 02:43:32;;;;;;;17.33;11.13;;;;;;;7.44;100.00;100161.84;2098577;28;20473;-64
2021/12/29 02:44:39;;;;;;;17.05;8.93;;;;;;;7.44;100.00;100161.84;2098730;28;20033;-64
2021/12/29 02:45:39;;;;;;;18.75;11.20;;;;;;;7.46;100.00;100149.63;2098782;28;20017;-63
2021/12/29 02:46:39;;;;;;;15.87;9.63;;;;;;;7.45;100.00;100160.94;2098930;28;20500;-64
2021/12/29 02:47:41;;;;;;;16.00;9.40;;;;;;;7.45;100.00;100163.53;2098730;28;20016;-65
2021/12/29 02:49:09;;;;;;;;;;;;;;;7.46;100.00;100167.81;2090223;28;20027;-65
2021/12/29 02:50:10;;;;;;;18.58;9.50;;;;;;;7.45;100.00;100158.34;2093336;28;19930;-64
2021/12/29 02:51:11;;;;;;;15.10;8.98;;;;;;;7.45;100.00;100158.34;2098651;28;20033;-64
2021/12/29 02:52:14;;;;;;;20.50;10.83;;;;;;;7.44;100.00;100148.88;2098674;28;20028;-62
2021/12/29 02:53:14;;;;;;;20.38;10.32;;;;;;;7.45;100.00;100157.47;2098615;28;20297;-65
2021/12/29 02:54:16;;;;;;;19.30;9.73;;;;;;;7.43;100.00;100152.34;2089676;28;20032;-65
2021/12/29 02:55:16;;;;;;;21.10;10.25;;;;;;;7.42;100.00;100155.84;2090095;28;20028;-63
2021/12/29 02:56:17;;;;;;;18.27;9.57;;;;;;;7.42;100.00;100153.25;2098112;28;20016;-65
2021/12/29 02:57:18;;;;;;;19.92;11.45;;;;;;;7.41;100.00;100156.78;2089846;28;20164;-64
2021/12/29 02:58:19;;;;;;;18.75;10.63;;;;;;;7.40;100.00;100155.09;2081535;28;20034;-67
2021/12/29 02:59:20;;;;;;;;;;;;;;;7.41;100.00;100156.78;2090411;28;20033;-65
2021/12/29 03:00:20;;;;;;;16.52;9.75;;;;;;;7.40;100.00;100164.63;2089666;28;20392;-65
2021/12/29 03:01:21;;;;;;;15.10;9.00;;;;;;;7.40;100.00;100165.47;2089807;28;20039;-64
2021/12/29 03:02:22;;;;;;;;;;;;;;;7.42;100.00;100165.38;2099026;28;20607;-64
2021/12/29 03:03:25;;;;;;;17.90;9.80;;;;;;;7.42;100.00;100178.38;2098722;28;19969;-65
2021/12/29 03:04:25;;;;;;;15.50;9.13;;;;;;;7.43;100.00;100180.09;2098635;28;20082;-64
2021/12/29 03:05:26;;;;;;;14.10;9.23;;;;;;;7.41;100.00;100177.53;2089828;28;20147;-65
2021/12/29 03:06:27;;;;;;;17.20;10.02;;;;;;;7.41;100.00;100185.31;2089550;28;20028;-65
2021/12/29 03:07:27;;;;;;;16.50;9.63;;;;;;;7.40;100.00;100175.00;2089809;28;20409;-65
2021/12/29 03:08:27;;;;;;;23.57;11.17;;;;;;;7.40;100.00;100175.84;2098619;28;20474;-65
2021/12/29 03:09:28;;;;;;;24.87;11.77;;;;;;;7.42;100.00;100178.38;2098671;28;20554;-64
2021/12/29 03:10:28;;;;;;;14.17;10.10;;;;;;;7.40;100.00;100182.78;2098718;28;20020;-65
2021/12/29 03:11:28;;;;;;;19.83;10.50;;;;;;;7.41;100.00;100189.66;2098691;28;20381;-64
2021/12/29 03:12:29;;;;;;;17.77;10.47;;;;;;;7.42;100.00;100179.22;2098688;28;20020;-64
2021/12/29 03:13:33;;;;;;;22.70;11.20;;;;;;;7.41;100.00;100190.53;2098660;28;20040;-65
2021/12/29 03:14:33;;;;;;;20.10;11.15;;;;;;;7.42;100.00;100204.31;2098425;28;20093;-64
2021/12/29 03:15:35;;;;;;;20.63;10.40;;;;;;;7.40;100.00;100203.56;2098603;28;20101;-64
2021/12/29 03:16:37;;;;;;;19.05;9.60;;;;;;;7.40;100.00;100203.56;2098599;28;20678;-65
2021/12/29 03:17:37;;;;;;;19.48;10.05;;;;;;;7.40;100.00;100204.41;2098669;28;20315;-65
2021/12/29 03:18:38;;;;;;;18.27;12.23;;;;;;;7.39;100.00;100212.25;2098530;28;20028;-65
2021/12/29 03:19:38;;;;;;;;;;;;;;;7.39;100.00;100210.50;2099042;28;20020;-64
2021/12/29 03:20:39;;;;;;;16.13;9.70;;;;;;;7.39;100.00;100209.66;2097862;28;19908;-65
2021/12/29 03:21:40;;;;;;;16.27;9.50;;;;;;;7.37;100.00;100204.53;2097951;28;20309;-63
2021/12/29 03:22:40;;;;;;;20.70;11.43;;;;;;;7.39;100.00;100209.66;2098629;28;20070;-64
2021/12/29 03:23:41;;;;;;;21.53;11.47;;;;;;;7.39;100.00;100212.25;2098602;28;20025;-65
2021/12/29 03:24:41;;;;;;;20.13;12.10;;;;;;;7.38;100.00;100218.34;2098601;28;20020;-64
2021/12/29 03:25:42;;;;;;;17.03;11.53;;;;;;;7.36;100.00;100221.03;2089589;28;20025;-65
2021/12/29 03:26:42;;;;;;;;;;;;;;;7.36;100.00;100222.75;2090017;28;20021;-65
2021/12/29 03:27:43;;;;;;;15.82;10.25;;;;;;;7.35;100.00;100224.50;2098418;28;19916;-64
2021/12/29 03:28:43;;;;;;;19.63;10.63;;;;;;;7.36;100.00;100228.81;2097885;28;20431;-65
2021/12/29 03:29:43;;;;;;;21.67;11.80;;;;;;;7.36;100.00;100225.34;2098494;28;20031;-64
2021/12/29 03:30:48;;;;;;;16.47;11.53;;;;;;;7.34;100.00;100223.69;2098331;28;20016;-65
2021/12/29 03:31:48;;;;;;;15.82;10.18;;;;;;;7.37;100.00;100227.03;2098450;28;20012;-65
2021/12/29 03:32:52;;;;;;;27.73;12.03;;;;;;;7.36;100.00;100236.59;2097822;28;20515;-64
2021/12/29 03:33:52;;;;;;;17.70;10.15;;;;;;;7.34;100.00;100238.38;2097892;28;20017;-65
2021/12/29 03:34:52;;;;;;;25.70;11.17;;;;;;;7.34;100.00;100233.19;2098576;28;20051;-65
2021/12/29 03:36:00;;;;;;;25.40;12.50;;;;;;;7.33;100.00;100231.50;2089606;28;20086;-64
2021/12/29 03:37:00;;;;;;;19.83;11.23;;;;;;;7.33;100.00;100241.91;2090666;28;20064;-65
2021/12/29 03:38:04;;;;;;;22.27;10.77;;;;;;;7.34;100.00;100238.38;2098433;28;20021;-64
2021/12/29 03:39:04;;;;;;;17.75;10.63;;;;;;;7.35;100.00;100245.25;2098429;28;20020;-64
2021/12/29 03:40:05;;;;;;;22.37;11.10;;;;;;;7.34;100.00;100241.84;2098509;28;20039;-64
2021/12/29 03:41:09;;;;;;;20.90;11.90;;;;;;;7.34;100.00;100233.19;2098383;28;20017;-65
2021/12/29 03:42:10;;;;;;;23.77;11.95;;;;;;;7.32;100.00;100241.03;2098479;28;20029;-66
2021/12/29 03:43:11;;;;;;;24.03;12.10;;;;;;;7.33;100.00;100236.72;2089535;28;20585;-65
2021/12/29 03:44:11;;;;;;;27.33;12.48;;;;;;;7.32;100.00;100237.59;2081250;28;20057;-64
2021/12/29 03:45:12;;;;;;;21.77;12.77;;;;;;;7.32;100.00;100246.22;2089559;28;20025;-65
2021/12/29 03:46:13;;;;;;;26.30;12.50;;;;;;;7.33;100.00;100239.31;2098369;28;20056;-66
2021/12/29 03:47:14;;;;;;;20.60;11.60;;;;;;;7.32;100.00;100245.38;2098432;28;20027;-65
2021/12/29 03:48:15;;;;;;;18.03;9.97;;;;;;;7.32;100.00;100240.19;2098357;28;20025;-64
2021/12/29 03:49:15;;;;;;;21.88;10.85;;;;;;;7.33;100.00;100252.28;2089485;28;20071;-66
2021/12/29 03:50:16;;;;;;;21.47;12.40;;;;;;;7.33;100.00;100253.09;2089619;28;20087;-66
2021/12/29 03:51:16;;;;;;;22.43;10.87;;;;;;;7.34;100.00;100259.16;2098398;28;20432;-65
2021/12/29 03:52:16;;;;;;;16.37;10.90;;;;;;;7.34;100.00;100259.16;2089479;28;20047;-65
2021/12/29 03:53:17;;;;;;;17.60;10.03;;;;;;;7.34;100.00;100253.97;2089602;28;20677;-65
2021/12/29 03:54:17;;;;;;;16.77;10.63;;;;;;;7.34;100.00;100248.78;2098431;28;20020;-65
2021/12/29 03:55:18;;;;;;;17.70;11.50;;;;;;;7.34;100.00;100253.97;2097672;28;20028;-65
2021/12/29 03:56:18;;;;;;;18.37;10.60;;;;;;;7.34;100.00;100248.78;2097805;28;20032;-65
2021/12/29 03:57:18;;;;;;;18.13;9.77;;;;;;;7.33;100.00;100260.91;2098437;28;20048;-64
2021/12/29 03:58:21;;;;;;;17.13;9.93;;;;;;;7.34;100.00;100264.34;2098376;28;20025;-65
2021/12/29 03:59:21;;;;;;;20.33;10.85;;;;;;;7.33;100.00;100267.84;2098278;28;20033;-64
2021/12/29 04:00:22;;;;;;;18.20;11.07;;;;;;;7.33;100.00;100262.66;2098341;28;20039;-64
2021/12/29 04:01:25;;;;;;;16.17;10.13;;;;;;;7.32;100.00;100266.13;2098331;28;20054;-66
2021/12/29 04:02:26;;;;;;;21.15;10.15;;;;;;;7.33;100.00;100273.88;2098356;28;20043;-64
2021/12/29 04:03:26;;;;;;;23.20;11.17;;;;;;;7.32;100.00;100266.13;2098320;28;20095;-65
2021/12/29 04:04:27;;;;;;;20.98;11.23;;;;;;;7.32;100.00;100273.94;2098314;28;20418;-65
2021/12/29 04:05:27;;;;;;;20.50;10.93;;;;;;;7.33;100.00;100267.84;2098315;28;20078;-65
2021/12/29 04:06:27;;;;;;;18.70;10.30;;;;;;;7.33;100.00;100266.09;2097658;28;20625;-65
2021/12/29 04:07:28;;;;;;;16.97;11.03;;;;;;;7.33;100.00;100273.88;2097679;28;20412;-65
2021/12/29 04:08:29;;;;;;;21.90;11.15;;;;;;;7.34;100.00;100274.72;2089340;28;20021;-65
2021/12/29 04:09:29;;;;;;;20.98;11.75;;;;;;;7.32;100.00;100271.34;2089495;28;20020;-66
2021/12/29 04:10:30;;;;;;;19.17;11.00;;;;;;;7.32;100.00;100271.34;2098309;28;20033;-65
2021/12/29 04:11:30;;;;;;;18.47;10.33;;;;;;;7.31;100.00;100269.66;2098225;28;20028;-64
2021/12/29 04:12:30;;;;;;;20.60;10.93;;;;;;;7.32;100.00;100271.34;2089305;28;20321;-65
2021/12/29 04:13:31;;;;;;;18.97;10.23;;;;;;;7.31;100.00;100273.09;2089406;28;20237;-66
2021/12/29 04:14:31;;;;;;;18.87;11.73;;;;;;;7.31;100.00;100267.06;2097631;28;20028;-65
2021/12/29 04:15:33;;;;;;;19.90;11.40;;;;;;;7.32;100.00;100268.75;2097774;28;20024;-65
2021/12/29 04:16:40;;;;;;;18.92;10.93;;;;;;;7.29;100.00;100272.31;2098213;28;20026;-66
2021/12/29 04:17:42;;;;;;;16.70;9.52;;;;;;;7.32;100.00;100276.53;2098149;28;20036;-65
2021/12/29 04:18:55;;;;;;;;;;;;;;;7.31;100.00;100273.09;2098695;28;20028;-64
2021/12/29 04:21:17;;;;;;;21.05;10.32;;;;;;;7.32;100.00;100281.72;2098263;28;20055;-65
2021/12/29 04:22:17;;;;;;;19.70;12.55;;;;;;;7.30;100.00;100278.34;2098151;28;20033;-65
2021/12/29 04:23:18;;;;;;;20.70;12.63;;;;;;;7.30;100.00;100279.22;2098237;28;20055;-65
2021/12/29 04:24:18;;;;;;;19.83;11.00;;;;;;;7.29;100.00;100277.50;2098220;28;20063;-65
2021/12/29 04:25:24;;;;;;;20.60;10.67;;;;;;;7.30;100.00;100283.53;2098109;28;20035;-64
2021/12/29 04:26:24;;;;;;;18.23;10.43;;;;;;;7.31;100.00;100274.84;2098064;28;20033;-64
2021/12/29 04:27:25;;;;;;;20.83;11.93;;;;;;;7.30;100.00;100283.53;2098029;28;20405;-65
2021/12/29 04:28:26;;;;;;;;;;;;;;;7.30;100.00;100287.00;2097941;28;20051;-65
2021/12/29 04:29:26;;;;;;;17.17;9.95;;;;;;;7.30;100.00;100283.53;2097671;28;19908;-66
2021/12/29 04:30:27;;;;;;;20.60;11.60;;;;;;;7.30;100.00;100283.53;2089232;28;20024;-64
2021/12/29 04:31:27;;;;;;;19.52;11.25;;;;;;;7.31;100.00;100290.41;2089282;28;20021;-65
2021/12/29 04:32:28;;;;;;;19.30;10.27;;;;;;;7.33;100.00;100297.25;2098237;28;20027;-66
2021/12/29 04:33:28;;;;;;;18.00;11.20;;;;;;;7.31;100.00;100296.47;2098226;28;20134;-64
2021/12/29 04:34:29;;;;;;;16.60;11.07;;;;;;;7.33;100.00;100306.78;2098202;28;20024;-63
2021/12/29 04:35:29;;;;;;;19.93;11.43;;;;;;;7.33;100.00;100299.00;2098223;28;20032;-65
2021/12/29 04:36:30;;;;;;;19.77;10.50;;;;;;;7.31;100.00;100303.41;2098291;28;20175;-66
2021/12/29 04:37:30;;;;;;;18.75;9.80;;;;;;;7.31;100.00;100304.25;2098060;28;20453;-64
2021/12/29 04:38:30;;;;;;;23.13;12.00;;;;;;;7.30;100.00;100315.53;2098193;28;20474;-64
2021/12/29 04:39:31;;;;;;;18.87;10.47;;;;;;;7.29;100.00;100307.81;2098200;28;20033;-64
2021/12/29 04:40:31;;;;;;;18.77;11.80;;;;;;;7.30;100.00;100314.69;2099672;28;20502;-63
2021/12/29 04:41:32;;;;;;;18.60;11.20;;;;;;;7.30;100.00;100309.50;2099676;28;20028;-66
2021/12/29 04:42:33;;;;;;;20.08;12.25;;;;;;;7.29;100.00;100307.81;2099209;28;20044;-64
2021/12/29 04:43:33;;;;;;;21.10;9.73;;;;;;;7.29;100.00;100305.22;2099186;28;20090;-65
2021/12/29 04:44:33;;;;;;;21.43;11.57;;;;;;;7.29;100.00;100316.44;2090879;28;20816;-65
2021/12/29 04:45:34;;;;;;;18.00;11.20;;;;;;;7.29;100.00;100310.41;2090950;28;20099;-65
2021/12/29 04:46:44;;;;;;;20.80;10.77;;;;;;;7.29;100.00;100318.19;2099818;28;20111;-65